Time;durP1;ratioP1;P1;durP2;ratioP2;P2;SDS_P1;SDS_P2;PMS_P1;PMS_P2;Temp;Humidity;BMP_temperature;BMP_pressure;BME280_temperature;BME280_humidity;BME280_pressure;Samples;Min_cycle;Max_cycle;Signal;HPM_P1;HPM_P2
2021/03/27 04:01:50;;;;;;;18.85;12.23;;;;;;;4.01;100.00;100561.16;1711191;78;21541;-60
2021/03/27 04:04:23;;;;;;;17.30;10.40;;;;;;;3.78;100.00;100566.20;1687508;81;22577;-59
2021/03/27 04:07:02;;;;;;;18.82;12.90;;;;;;;3.37;100.00;100574.39;1687512;82;22587;-60
2021/03/27 04:09:55;;;;;;;15.98;11.60;;;;;;;3.03;100.00;100578.50;1688369;82;21181;-59
2021/03/27 04:12:37;;;;;;;17.42;11.85;;;;;;;2.70;100.00;100574.81;1687263;82;21061;-59
2021/03/27 04:15:18;;;;;;;16.87;9.95;;;;;;;2.37;100.00;100578.67;1660461;84;21572;-61
2021/03/27 04:18:28;;;;;;;14.05;9.60;;;;;;;2.24;100.00;100583.17;1673540;83;21071;-60
2021/03/27 04:21:11;;;;;;;15.95;10.45;;;;;;;2.43;100.00;100584.62;1664269;84;21131;-60
2021/03/27 04:24:02;;;;;;;13.80;8.70;;;;;;;2.75;100.00;100587.64;1684788;83;21249;-60
2021/03/27 04:26:38;;;;;;;11.88;7.75;;;;;;;3.37;100.00;100584.70;1681814;83;21161;-60
2021/03/27 04:29:37;;;;;;;11.83;7.42;;;;;;;4.67;100.00;100580.39;1683252;84;22485;-61
2021/03/27 04:32:35;;;;;;;13.95;9.28;;;;;;;6.10;100.00;100577.97;1687057;82;21121;-70
2021/03/27 04:35:55;;;;;;;14.70;10.80;;;;;;;7.71;100.00;100577.66;1687044;82;21400;-60
2021/03/27 04:38:38;;;;;;;18.57;12.00;;;;;;;8.69;100.00;100576.58;1687089;82;21031;-60
2021/03/27 04:41:45;;;;;;;18.67;12.53;;;;;;;9.60;100.00;100589.25;1657781;84;21259;-61
2021/03/27 04:44:25;;;;;;;15.93;13.00;;;;;;;10.67;100.00;100577.74;1661683;84;21544;-63
2021/03/27 04:47:06;;;;;;;15.70;12.40;;;;;;;10.67;100.00;100577.74;1696725;82;21630;-61
2021/03/27 04:49:52;;;;;;;14.73;10.55;;;;;;;11.82;100.00;100581.26;1682227;82;21875;-60
2021/03/27 04:52:43;;;;;;;17.33;12.87;;;;;;;12.93;100.00;100580.47;1697545;82;21242;-60
2021/03/27 04:55:32;;;;;;;20.80;17.70;;;;;;;14.06;97.44;100580.56;1704080;82;21174;-69
2021/03/27 04:58:36;;;;;;;22.27;19.97;;;;;;;15.30;82.33;100578.19;1698529;83;21183;-59
2021/03/27 05:01:29;;;;;;;24.73;20.23;;;;;;;16.12;68.76;100575.83;1646887;83;21306;-59
2021/03/27 05:07:14;;;;;;;15.07;10.40;;;;;;;17.33;54.29;100574.65;1625781;85;21206;-61
2021/03/27 05:09:53;;;;;;;11.93;8.80;;;;;;;17.69;50.58;100579.11;1644064;85;21097;-60
2021/03/27 05:12:30;;;;;;;11.03;8.00;;;;;;;17.46;47.56;100574.52;1647713;85;21600;-59
2021/03/27 05:15:14;;;;;;;13.00;9.07;;;;;;;16.67;46.45;100581.33;1649034;85;21146;-59
2021/03/27 05:17:49;;;;;;;12.37;10.43;;;;;;;15.51;48.46;100587.61;1608496;86;21531;-59
2021/03/27 05:20:31;;;;;;;11.17;9.10;;;;;;;14.26;54.40;100591.89;1666860;84;21152;-59
2021/03/27 05:23:17;;;;;;;11.87;8.33;;;;;;;13.25;60.61;100592.98;1636647;86;21131;-60
2021/03/27 05:26:09;;;;;;;12.10;8.83;;;;;;;12.29;68.06;100601.73;1648532;86;21169;-59
2021/03/27 05:29:14;;;;;;;12.90;9.63;;;;;;;11.40;76.54;100599.23;1696492;83;21159;-59
2021/03/27 05:31:51;;;;;;;12.60;8.53;;;;;;;10.56;85.55;100605.03;1696259;84;21280;-60
2021/03/27 05:34:39;;;;;;;12.87;9.63;;;;;;;9.92;96.91;100609.12;1677050;84;21679;-60
2021/03/27 05:37:54;;;;;;;17.90;12.43;;;;;;;9.69;100.00;100609.55;1696261;84;21564;-69
2021/03/27 05:40:47;;;;;;;17.60;12.37;;;;;;;9.78;100.00;100612.45;1698977;83;20964;-69
2021/03/27 05:44:04;;;;;;;17.17;10.10;;;;;;;9.99;100.00;100611.86;1652887;85;21618;-58
2021/03/27 05:46:46;;;;;;;12.27;8.50;;;;;;;10.08;100.00;100615.26;1699134;83;21904;-59
2021/03/27 05:49:42;;;;;;;12.73;9.20;;;;;;;10.16;100.00;100614.71;1695335;83;21693;-60
2021/03/27 05:52:25;;;;;;;13.77;8.93;;;;;;;10.25;100.00;100615.50;1698894;83;21851;-60
2021/03/27 05:55:27;;;;;;;13.87;8.63;;;;;;;10.36;100.00;100615.11;1656079;85;21806;-70
2021/03/27 05:58:13;;;;;;;16.43;9.27;;;;;;;10.46;100.00;100614.40;1641699;86;21843;-61
2021/03/27 06:00:58;;;;;;;13.37;9.30;;;;;;;10.65;100.00;100620.14;1642247;86;23253;-61
2021/03/27 06:03:50;;;;;;;14.00;9.07;;;;;;;10.85;100.00;100619.97;1644985;85;21207;-61
2021/03/27 06:06:36;;;;;;;16.70;9.70;;;;;;;11.08;100.00;100634.78;1648437;85;22243;-60
2021/03/27 06:09:49;;;;;;;15.73;9.43;;;;;;;11.26;100.00;100633.16;1644565;86;21908;-61
2021/03/27 06:12:26;;;;;;;17.10;12.45;;;;;;;11.49;100.00;100635.69;1644067;86;21219;-59
2021/03/27 06:15:27;;;;;;;15.40;10.53;;;;;;;11.89;100.00;100630.04;1694191;83;22129;-61
2021/03/27 06:18:38;;;;;;;15.67;10.93;;;;;;;12.27;98.61;100632.95;1640163;85;21132;-61
2021/03/27 06:21:52;;;;;;;15.03;9.95;;;;;;;12.72;94.77;100630.48;1663429;84;21087;-61
2021/03/27 06:24:56;;;;;;;15.00;8.90;;;;;;;13.33;90.65;100622.12;1645127;85;21176;-60
2021/03/27 06:28:05;;;;;;;12.73;10.47;;;;;;;14.09;82.10;100624.70;1646815;84;21196;-62
2021/03/27 06:31:29;;;;;;;16.23;10.03;;;;;;;14.76;74.62;100623.86;1642267;86;23064;-61
2021/03/27 06:34:32;;;;;;;18.30;12.83;;;;;;;14.97;63.16;100622.86;1644085;85;22533;-61
2021/03/27 06:37:42;;;;;;;16.30;11.70;;;;;;;15.05;66.71;100625.78;1643887;85;21176;-60
2021/03/27 06:41:04;;;;;;;15.27;11.33;;;;;;;15.39;60.94;100627.35;1644144;85;21171;-69
2021/03/27 06:44:04;;;;;;;18.37;13.20;;;;;;;15.96;61.32;100621.03;1644780;85;21168;-59
2021/03/27 06:47:04;;;;;;;17.40;12.97;;;;;;;16.84;54.20;100615.03;1643567;85;22186;-61
2021/03/27 06:50:00;;;;;;;17.07;13.37;;;;;;;17.33;49.10;100619.44;1644696;85;21618;-61
2021/03/27 06:52:53;;;;;;;17.77;14.43;;;;;;;17.54;47.61;100618.70;1644005;85;21594;-60
2021/03/27 06:55:33;;;;;;;16.87;13.03;;;;;;;17.68;46.86;100622.81;1644416;85;20961;-61
2021/03/27 06:58:45;;;;;;;18.00;13.87;;;;;;;18.09;46.39;100615.53;1640741;85;21250;-60
2021/03/27 07:02:11;;;;;;;15.17;11.93;;;;;;;18.63;43.95;100615.56;1643650;85;21880;-69
2021/03/27 07:05:11;;;;;;;15.23;11.70;;;;;;;19.36;40.31;100614.36;1641402;85;21033;-61
2021/03/27 07:07:46;;;;;;;13.03;11.35;;;;;;;20.15;39.32;100612.77;1606618;88;21160;-60
2021/03/27 07:10:46;;;;;;;13.00;10.50;;;;;;;20.76;35.67;100607.72;1609844;87;21838;-61
2021/03/27 07:13:46;;;;;;;12.57;10.07;;;;;;;21.04;34.59;100603.34;1608489;87;21630;-67
2021/03/27 07:16:55;;;;;;;12.70;10.67;;;;;;;21.38;33.70;100604.09;1609902;88;21758;-62
2021/03/27 07:19:49;;;;;;;12.40;9.37;;;;;;;21.52;34.00;100604.02;1609735;88;21726;-61
2021/03/27 07:22:33;;;;;;;9.80;8.80;;;;;;;21.57;31.80;100609.38;1611379;86;21576;-62
2021/03/27 07:25:42;;;;;;;11.05;8.85;;;;;;;21.52;30.77;100610.64;1610256;87;21168;-61
2021/03/27 07:28:35;;;;;;;9.73;8.68;;;;;;;21.23;31.86;100609.97;1608214;86;21598;-60
2021/03/27 07:31:38;;;;;;;10.30;8.60;;;;;;;21.36;31.01;100608.30;1611733;87;23282;-60
2021/03/27 07:34:44;;;;;;;9.70;8.30;;;;;;;21.26;30.67;100612.66;1608427;87;21220;-72
2021/03/27 07:37:50;;;;;;;10.30;8.30;;;;;;;21.35;31.36;100612.53;1607784;88;21078;-60
2021/03/27 07:40:30;;;;;;;10.00;8.03;;;;;;;21.76;31.19;100615.69;1607238;87;21161;-59
2021/03/27 07:43:15;;;;;;;8.45;7.50;;;;;;;22.03;30.53;100612.53;1608465;88;21204;-72
2021/03/27 07:46:12;;;;;;;9.13;7.70;;;;;;;22.28;30.50;100613.87;1606894;87;21835;-60
2021/03/27 07:49:20;;;;;;;10.43;8.65;;;;;;;22.45;29.57;100606.57;1606008;88;21113;-59
2021/03/27 07:52:23;;;;;;;9.60;7.65;;;;;;;22.45;29.35;100607.10;1606224;88;21085;-63
2021/03/27 07:55:06;;;;;;;8.38;7.40;;;;;;;22.49;29.23;100607.66;1606027;88;21183;-60
2021/03/27 07:57:58;;;;;;;10.43;7.80;;;;;;;22.60;29.13;100607.22;1606299;88;21243;-60
2021/03/27 08:00:41;;;;;;;15.95;9.00;;;;;;;22.74;29.05;100604.94;1607636;88;21216;-60
2021/03/27 08:03:37;;;;;;;9.50;8.08;;;;;;;22.77;28.86;100601.25;1607243;88;21720;-61
2021/03/27 08:06:40;;;;;;;13.23;8.67;;;;;;;22.63;27.81;100601.94;1612233;85;21417;-72
2021/03/27 08:09:42;;;;;;;8.77;7.67;;;;;;;22.10;27.86;100610.48;1649208;85;21225;-59
2021/03/27 08:12:36;;;;;;;11.30;9.63;;;;;;;21.35;28.03;100610.69;1647546;85;21184;-60
2021/03/27 08:15:39;;;;;;;18.37;9.13;;;;;;;20.82;28.84;100616.01;1648969;85;21214;-71
2021/03/27 08:18:47;;;;;;;8.50;7.53;;;;;;;20.80;30.25;100612.02;1647682;85;21190;-61
2021/03/27 08:21:36;;;;;;;9.93;8.23;;;;;;;20.94;29.16;100619.09;1656763;85;21130;-61
2021/03/27 08:24:16;;;;;;;10.80;8.20;;;;;;;20.59;29.77;100613.00;1652325;85;21523;-60
2021/03/27 08:27:19;;;;;;;10.77;7.53;;;;;;;20.31;30.04;100615.16;1648313;85;21129;-60
2021/03/27 08:30:35;;;;;;;11.17;8.70;;;;;;;20.18;30.93;100617.56;1645977;85;21163;-60
2021/03/27 08:33:42;;;;;;;11.53;8.67;;;;;;;20.47;30.98;100614.89;1687457;83;21218;-60
2021/03/27 08:36:32;;;;;;;9.30;7.17;;;;;;;20.20;30.66;100619.20;1689695;84;21012;-60
2021/03/27 08:39:30;;;;;;;9.37;6.87;;;;;;;19.84;32.10;100607.41;1691683;84;21605;-61
2021/03/27 08:42:48;;;;;;;8.93;7.17;;;;;;;19.89;32.38;100612.02;1696360;84;21573;-62
2021/03/27 08:45:25;;;;;;;8.43;6.70;;;;;;;20.06;32.15;100609.41;1695021;84;21223;-64
2021/03/27 08:48:25;;;;;;;8.50;7.00;;;;;;;20.22;31.26;100610.48;1698630;84;21095;-62
2021/03/27 08:51:26;;;;;;;9.63;7.07;;;;;;;20.17;31.21;100615.97;1697444;84;21211;-63
2021/03/27 08:54:17;;;;;;;10.60;7.30;;;;;;;19.64;31.24;100622.37;1697870;84;21044;-62
2021/03/27 08:56:54;;;;;;;10.60;7.47;;;;;;;19.12;32.72;100617.00;1670784;84;21174;-62
2021/03/27 09:00:20;;;;;;;9.97;7.30;;;;;;;18.92;33.45;100616.55;1691039;84;22183;-62
2021/03/27 09:03:05;;;;;;;11.00;7.60;;;;;;;19.02;33.82;100614.16;1654270;85;21181;-63
2021/03/27 09:05:51;;;;;;;11.67;7.37;;;;;;;19.33;33.52;100609.53;1649906;85;21201;-61
2021/03/27 09:08:57;;;;;;;11.90;8.27;;;;;;;19.36;32.56;100607.75;1649434;85;21113;-65
2021/03/27 09:11:49;;;;;;;9.17;7.33;;;;;;;19.06;32.88;100604.73;1672956;84;21627;-63
2021/03/27 09:14:45;;;;;;;11.77;7.60;;;;;;;18.90;33.46;100609.36;1705253;82;21398;-62
2021/03/27 09:17:39;;;;;;;10.30;7.93;;;;;;;18.96;33.63;100614.53;1713280;80;21018;-62
2021/03/27 09:20:42;;;;;;;11.97;6.97;;;;;;;19.30;33.52;100608.67;1727845;80;21140;-62
2021/03/27 09:23:42;;;;;;;9.93;6.60;;;;;;;19.60;33.65;100605.34;1725989;80;21516;-62
2021/03/27 09:26:46;;;;;;;8.50;6.57;;;;;;;19.93;31.72;100603.89;1710146;80;21159;-62
2021/03/27 09:29:53;;;;;;;8.17;6.33;;;;;;;19.52;30.57;100611.52;1735792;80;21655;-72
2021/03/27 09:32:43;;;;;;;12.53;6.70;;;;;;;18.55;31.61;100611.94;1748276;80;21749;-64
2021/03/27 09:35:52;;;;;;;11.00;5.53;;;;;;;17.88;33.08;100616.83;1699471;82;21062;-62
2021/03/27 09:38:32;;;;;;;9.37;6.00;;;;;;;17.53;35.16;100619.22;1699706;82;21033;-61
2021/03/27 09:41:32;;;;;;;9.73;6.10;;;;;;;17.56;35.64;100616.16;1702533;82;21588;-63
2021/03/27 09:44:18;;;;;;;8.57;6.23;;;;;;;17.49;34.83;100612.78;1688015;82;21281;-68
2021/03/27 09:47:28;;;;;;;11.63;6.70;;;;;;;17.11;36.18;100609.83;1689808;83;21171;-64
2021/03/27 09:50:37;;;;;;;7.65;5.40;;;;;;;17.02;37.71;100615.09;1707704;81;21149;-64
2021/03/27 09:53:10;;;;;;;7.90;5.70;;;;;;;17.32;39.14;100621.80;1702084;82;21164;-62
2021/03/27 09:55:56;;;;;;;9.83;6.40;;;;;;;17.99;36.86;100612.61;1700894;82;21113;-62
2021/03/27 09:58:32;;;;;;;8.60;5.37;;;;;;;18.55;35.73;100606.66;1702366;82;22345;-64
2021/03/27 10:01:09;;;;;;;7.57;5.10;;;;;;;19.05;35.44;100611.55;1701234;82;21662;-61
2021/03/27 10:04:09;;;;;;;9.97;5.27;;;;;;;19.55;33.99;100613.17;1664090;82;21192;-61
2021/03/27 10:07:17;;;;;;;10.10;5.12;;;;;;;20.00;32.54;100607.70;1701581;82;21180;-61
2021/03/27 10:09:57;;;;;;;7.10;4.47;;;;;;;20.27;31.85;100618.01;1712779;82;21026;-61
2021/03/27 10:12:30;;;;;;;6.93;4.70;;;;;;;19.99;30.59;100628.06;1713771;82;21215;-62
2021/03/27 10:15:08;;;;;;;6.67;4.13;;;;;;;19.42;31.31;100626.63;1713487;82;21236;-60
2021/03/27 10:17:41;;;;;;;7.23;4.30;;;;;;;18.89;32.02;100627.57;1727095;81;21122;-61
2021/03/27 10:20:44;;;;;;;7.73;4.53;;;;;;;18.28;33.04;100630.00;1759887;80;21192;-61
2021/03/27 10:23:35;;;;;;;5.85;3.75;;;;;;;17.73;34.48;100624.30;1761905;80;22648;-63
2021/03/27 10:26:29;;;;;;;6.43;3.70;;;;;;;17.15;35.54;100633.39;1725736;82;21196;-61
2021/03/27 10:32:36;;;;;;;10.40;3.83;;;;;;;15.63;38.59;100646.09;1826047;78;22448;-60
2021/03/27 10:35:43;;;;;;;7.87;3.50;;;;;;;15.06;40.61;100647.08;1808086;79;20970;-60
2021/03/27 10:38:35;;;;;;;7.27;4.13;;;;;;;14.71;42.88;100647.28;1803381;79;21363;-60
2021/03/27 10:41:25;;;;;;;5.90;3.53;;;;;;;14.41;45.79;100645.48;1803565;78;20998;-63
2021/03/27 10:44:08;;;;;;;8.57;4.53;;;;;;;14.19;49.22;100647.94;1797233;79;21444;-63
2021/03/27 10:46:41;;;;;;;7.17;4.43;;;;;;;14.03;51.32;100651.72;1766823;78;20982;-61
2021/03/27 10:49:29;;;;;;;9.37;5.23;;;;;;;13.83;51.75;100652.45;1798766;78;21004;-61
2021/03/27 10:52:17;;;;;;;6.93;4.80;;;;;;;13.57;53.83;100651.00;1801490;79;21235;-63
2021/03/27 10:54:59;;;;;;;6.25;4.17;;;;;;;13.18;56.54;100657.53;1795920;79;21119;-64
2021/03/27 10:58:19;;;;;;;7.03;3.90;;;;;;;12.92;59.26;100658.16;1755200;79;20982;-76
2021/03/27 11:00:59;;;;;;;7.63;4.47;;;;;;;12.82;60.97;100651.11;1796170;79;21631;-61
2021/03/27 11:03:54;;;;;;;7.03;4.17;;;;;;;12.67;61.68;100656.41;1792293;78;21207;-65
2021/03/27 11:07:06;;;;;;;10.30;4.83;;;;;;;12.57;63.30;100663.73;1793845;78;21604;-73
2021/03/27 11:10:12;;;;;;;13.67;6.70;;;;;;;12.21;69.38;100667.69;1790685;79;21016;-62
2021/03/27 11:13:18;;;;;;;5.67;3.50;;;;;;;12.21;69.38;100667.69;1746159;81;21140;-60
2021/03/27 11:16:43;;;;;;;7.97;4.23;;;;;;;12.13;73.18;100669.41;1732891;81;21928;-60
2021/03/27 11:19:51;;;;;;;7.60;4.43;;;;;;;12.08;74.11;100668.32;1756861;79;22343;-60
2021/03/27 11:23:09;;;;;;;7.90;4.23;;;;;;;12.09;76.81;100671.27;1766685;79;22889;-61
2021/03/27 11:26:13;;;;;;;7.60;4.13;;;;;;;12.05;77.40;100666.09;1737775;81;21748;-64
2021/03/27 11:29:02;;;;;;;8.73;5.57;;;;;;;12.03;76.65;100666.77;1726598;82;21828;-68
2021/03/27 11:31:45;;;;;;;6.93;4.60;;;;;;;12.01;74.65;100660.89;1763025;79;21908;-64
2021/03/27 11:34:49;;;;;;;8.57;4.07;;;;;;;12.01;74.65;100660.89;1715128;81;22087;-74
2021/03/27 11:37:35;;;;;;;9.57;4.27;;;;;;;12.01;74.85;100668.73;1740743;81;21862;-63
2021/03/27 11:40:24;;;;;;;5.77;3.77;;;;;;;11.97;76.59;100671.39;1732464;82;21881;-63
2021/03/27 11:43:06;;;;;;;6.07;3.23;;;;;;;11.89;77.14;100669.69;1751800;79;21418;-65
2021/03/27 11:45:40;;;;;;;8.43;4.27;;;;;;;11.89;77.14;100669.69;1746407;81;21426;-62
2021/03/27 11:48:47;;;;;;;14.60;5.83;;;;;;;11.76;80.23;100670.81;1717013;80;21827;-62
2021/03/27 11:51:26;;;;;;;8.10;5.00;;;;;;;11.76;80.23;100670.81;1621593;86;21965;-62
2021/03/27 11:54:35;;;;;;;8.93;5.25;;;;;;;11.68;81.99;100673.02;1634436;86;21448;-62
2021/03/27 11:57:24;;;;;;;7.67;4.67;;;;;;;11.64;83.00;100674.36;1651294;85;21588;-61
2021/03/27 12:03:22;;;;;;;8.57;4.07;;;;;;;11.68;86.26;100675.62;1632402;87;21478;-63
2021/03/27 12:09:16;;;;;;;5.70;3.50;;;;;;;11.76;84.86;100679.45;1751047;81;21766;-63
2021/03/27 12:12:01;;;;;;;7.95;4.10;;;;;;;11.71;83.47;100676.58;1752426;81;21450;-63
2021/03/27 12:14:49;;;;;;;7.27;3.70;;;;;;;11.69;84.72;100690.30;1703369;81;21247;-61
2021/03/27 12:17:52;;;;;;;8.03;4.47;;;;;;;11.69;84.72;100690.30;1752571;80;21692;-68
2021/03/27 12:20:46;;;;;;;7.93;5.37;;;;;;;11.69;85.56;100691.60;1749704;81;21461;-61
2021/03/27 12:23:35;;;;;;;5.67;3.63;;;;;;;11.65;88.15;100698.17;1745339;81;21457;-59
2021/03/27 12:26:25;;;;;;;6.87;4.23;;;;;;;11.65;88.15;100698.17;1752602;81;21287;-61
2021/03/27 12:29:05;;;;;;;7.30;4.43;;;;;;;11.63;88.36;100697.53;1749826;81;22244;-62
2021/03/27 12:32:19;;;;;;;9.17;4.73;;;;;;;11.52;90.77;100700.61;1749424;81;21780;-60
2021/03/27 12:34:54;;;;;;;11.87;5.40;;;;;;;11.44;92.53;100708.83;1752339;81;21594;-61
2021/03/27 12:37:31;;;;;;;10.63;7.03;;;;;;;11.44;92.53;100708.83;1749308;81;21608;-61
2021/03/27 12:40:26;;;;;;;12.27;7.40;;;;;;;11.35;93.66;100711.67;1750998;81;21402;-60
2021/03/27 12:43:11;;;;;;;11.03;6.87;;;;;;;11.26;94.80;100714.86;1750639;80;21600;-62
2021/03/27 12:45:46;;;;;;;12.47;7.40;;;;;;;10.97;100.00;100724.69;1750338;81;21389;-62
2021/03/27 12:48:59;;;;;;;11.30;7.90;;;;;;;10.97;100.00;100724.69;1747597;81;21581;-73
2021/03/27 12:51:43;;;;;;;11.70;6.60;;;;;;;10.72;100.00;100724.06;1718795;81;21725;-62
2021/03/27 12:54:36;;;;;;;10.27;7.13;;;;;;;10.47;100.00;100722.88;1752027;81;21724;-60
2021/03/27 12:57:21;;;;;;;12.90;7.43;;;;;;;10.26;100.00;100729.15;1749665;81;21285;-66
2021/03/27 13:00:44;;;;;;;9.53;6.57;;;;;;;10.05;100.00;100732.30;1749546;81;21371;-60
2021/03/27 13:03:38;;;;;;;9.83;6.50;;;;;;;9.85;100.00;100740.16;1750633;80;21442;-61
2021/03/27 13:06:44;;;;;;;12.07;7.17;;;;;;;9.66;100.00;100745.23;1749566;81;21264;-61
2021/03/27 13:09:43;;;;;;;10.30;7.00;;;;;;;9.50;100.00;100749.48;1752191;80;21818;-71
2021/03/27 13:12:20;;;;;;;9.43;6.47;;;;;;;9.34;100.00;100753.39;1752150;80;21855;-61
2021/03/27 13:15:18;;;;;;;10.03;6.13;;;;;;;9.22;100.00;100749.49;1746168;80;21405;-61
2021/03/27 13:18:02;;;;;;;9.53;6.50;;;;;;;9.15;100.00;100745.41;1714663;82;21421;-61
2021/03/27 13:20:50;;;;;;;22.58;15.30;;;;;;;9.05;100.00;100755.64;1682336;83;22600;-64
2021/03/27 13:23:22;;;;;;;18.33;11.73;;;;;;;8.93;100.00;100759.04;1684794;83;21183;-62
2021/03/27 13:26:02;;;;;;;40.15;27.32;;;;;;;8.84;100.00;100763.41;1689241;82;21376;-65
2021/03/27 13:28:38;;;;;;;18.80;13.08;;;;;;;8.79;100.00;100755.30;1742038;81;21013;-64
2021/03/27 13:31:17;;;;;;;16.35;13.13;;;;;;;8.74;100.00;100765.33;1752595;81;21590;-63
2021/03/27 13:34:03;;;;;;;18.55;13.08;;;;;;;8.69;100.00;100762.41;1698821;81;21017;-73
2021/03/27 13:36:42;;;;;;;10.32;7.28;;;;;;;8.61;100.00;100762.38;1750117;81;21543;-62
2021/03/27 13:39:36;;;;;;;10.17;7.27;;;;;;;8.53;100.00;100761.38;1749308;81;20997;-70
2021/03/27 13:42:10;;;;;;;11.05;7.47;;;;;;;8.46;100.00;100763.47;1723876;81;21367;-62
2021/03/27 13:45:04;;;;;;;10.60;7.40;;;;;;;8.39;100.00;100765.86;1749756;81;21219;-59
2021/03/27 13:47:46;;;;;;;11.22;7.58;;;;;;;8.33;100.00;100769.05;1751280;81;21639;-60
2021/03/27 13:50:25;;;;;;;13.98;9.05;;;;;;;8.27;100.00;100764.48;1751249;80;21551;-70
2021/03/27 13:53:20;;;;;;;13.65;9.73;;;;;;;8.20;100.00;100762.98;1751020;81;21060;-61
2021/03/27 13:56:00;;;;;;;14.13;8.33;;;;;;;8.15;100.00;100767.03;1751672;81;21140;-61
2021/03/27 13:59:10;;;;;;;13.48;8.83;;;;;;;8.10;100.00;100764.06;1722021;81;21425;-61
2021/03/27 14:01:50;;;;;;;14.30;9.08;;;;;;;8.05;100.00;100774.92;1753372;81;21211;-61
2021/03/27 14:04:30;;;;;;;11.78;7.67;;;;;;;8.03;100.00;100776.38;1746916;81;21203;-60
2021/03/27 14:07:06;;;;;;;14.43;9.40;;;;;;;8.02;100.00;100780.41;1750096;80;21682;-61
2021/03/27 14:09:50;;;;;;;12.25;8.43;;;;;;;8.02;100.00;100777.81;1704072;83;21581;-60
2021/03/27 14:12:44;;;;;;;14.73;9.23;;;;;;;8.03;100.00;100778.98;1693931;84;22001;-61
2021/03/27 14:15:35;;;;;;;13.48;8.65;;;;;;;8.03;100.00;100778.98;1711624;83;21061;-61
2021/03/27 14:18:42;;;;;;;10.82;7.75;;;;;;;8.02;100.00;100769.54;1691740;84;21194;-59
2021/03/27 14:21:20;;;;;;;11.08;7.22;;;;;;;8.02;100.00;100777.33;1658442;83;21179;-68
2021/03/27 14:24:27;;;;;;;10.98;7.67;;;;;;;8.03;100.00;100778.98;1685907;83;21455;-61
2021/03/27 14:27:30;;;;;;;11.20;7.95;;;;;;;8.03;100.00;100782.03;1724525;83;21282;-60
2021/03/27 14:30:27;;;;;;;9.15;6.42;;;;;;;8.04;100.00;100774.11;1692746;84;21169;-61
2021/03/27 14:33:14;;;;;;;16.77;10.18;;;;;;;8.05;100.00;100775.73;1665102;84;21153;-59
2021/03/27 14:36:19;;;;;;;14.38;8.98;;;;;;;8.08;100.00;100781.59;1724576;83;21220;-60
2021/03/27 14:39:22;;;;;;;12.47;8.98;;;;;;;8.10;100.00;100779.64;1722914;82;21016;-67
2021/03/27 14:42:13;;;;;;;;;;;;;;;8.14;100.00;100781.77;1696381;84;22235;-60
2021/03/27 14:45:19;;;;;;;13.43;7.70;;;;;;;8.16;100.00;100781.64;1687079;84;20300;-60
2021/03/27 14:48:13;;;;;;;12.25;8.00;;;;;;;8.17;100.00;100787.16;1725145;83;21172;-63
2021/03/27 14:51:03;;;;;;;41.57;27.00;;;;;;;8.25;100.00;100784.59;1810216;77;23308;-67
2021/03/27 14:53:55;;;;;;;19.32;13.10;;;;;;;8.21;100.00;100782.79;1781062;78;20974;-63
2021/03/27 14:56:33;;;;;;;17.67;11.20;;;;;;;8.24;100.00;100793.36;1788465;79;21146;-62
2021/03/27 14:59:24;;;;;;;13.78;9.28;;;;;;;8.25;100.00;100791.09;1740956;79;21656;-60
2021/03/27 15:02:17;;;;;;;16.40;9.25;;;;;;;8.23;100.00;100796.94;1779969;79;20999;-61
2021/03/27 15:05:04;;;;;;;15.53;10.25;;;;;;;8.20;100.00;100794.16;1771840;79;21041;-60
2021/03/27 15:08:07;;;;;;;11.20;7.47;;;;;;;8.17;100.00;100789.75;1795930;79;21046;-61
2021/03/27 15:10:46;;;;;;;10.90;7.12;;;;;;;8.14;100.00;100799.14;1782656;79;20957;-60
2021/03/27 15:13:59;;;;;;;11.83;8.33;;;;;;;8.11;100.00;100803.36;1787569;79;20970;-62
2021/03/27 15:17:04;;;;;;;12.18;7.92;;;;;;;8.07;100.00;100801.56;1789578;79;21027;-69
2021/03/27 15:20:09;;;;;;;10.68;7.15;;;;;;;8.02;100.00;100801.18;1793265;79;21000;-62
2021/03/27 15:23:19;;;;;;;11.40;7.35;;;;;;;7.97;100.00;100803.44;1780556;79;21001;-61
2021/03/27 15:29:34;;;;;;;14.53;9.00;;;;;;;7.84;100.00;100805.14;1785570;79;21216;-62
2021/03/27 15:32:36;;;;;;;15.25;9.35;;;;;;;7.75;100.00;100809.44;1785532;79;21119;-61
2021/03/27 15:35:21;;;;;;;20.23;11.68;;;;;;;7.68;100.00;100809.70;1775009;79;21665;-61
2021/03/27 15:38:21;;;;;;;22.17;13.75;;;;;;;7.63;100.00;100807.24;1784236;79;22081;-61
2021/03/27 15:40:59;;;;;;;17.00;11.75;;;;;;;7.58;100.00;100811.59;1775402;79;22110;-69
2021/03/27 15:43:53;;;;;;;19.00;12.28;;;;;;;7.50;100.00;100813.63;1796701;79;21032;-63
2021/03/27 15:46:49;;;;;;;17.07;12.03;;;;;;;7.43;100.00;100817.78;1791347;77;21155;-68
2021/03/27 15:49:37;;;;;;;18.50;11.60;;;;;;;7.37;100.00;100819.66;1763706;79;21109;-61
2021/03/27 15:52:36;;;;;;;15.88;11.03;;;;;;;7.28;100.00;100820.56;1761031;79;21137;-60
2021/03/27 15:55:29;;;;;;;21.33;13.68;;;;;;;7.21;100.00;100826.81;1775513;79;22052;-62
2021/03/27 15:58:00;;;;;;;17.52;12.15;;;;;;;7.13;100.00;100824.14;1772658;79;21136;-60
2021/03/27 16:00:39;;;;;;;16.05;11.75;;;;;;;7.06;100.00;100825.20;1782777;79;21475;-60
2021/03/27 16:03:46;;;;;;;19.10;11.30;;;;;;;7.01;100.00;100827.91;1770595;79;21120;-60
2021/03/27 16:06:48;;;;;;;17.90;11.63;;;;;;;6.96;100.00;100827.02;1783101;79;21676;-61
2021/03/27 16:09:32;;;;;;;57.20;31.12;;;;;;;6.89;100.00;100829.86;1782627;79;21334;-61
2021/03/27 16:12:14;;;;;;;28.05;16.73;;;;;;;6.84;100.00;100832.08;1794966;79;21120;-60
2021/03/27 16:15:13;;;;;;;17.20;11.40;;;;;;;6.78;100.00;100837.82;1761645;79;20954;-61
2021/03/27 16:17:52;;;;;;;12.80;8.78;;;;;;;6.73;100.00;100836.16;1715726;82;21239;-60
2021/03/27 16:20:35;;;;;;;17.77;10.43;;;;;;;6.69;100.00;100841.28;1775380;77;20999;-58
2021/03/27 16:23:28;;;;;;;16.75;10.38;;;;;;;6.67;100.00;100840.15;1789533;79;21162;-60
2021/03/27 16:26:30;;;;;;;14.43;9.53;;;;;;;6.63;100.00;100844.44;1803934;79;21416;-60
2021/03/27 16:29:18;;;;;;;14.75;10.10;;;;;;;6.57;100.00;100845.84;1793449;79;21117;-64
2021/03/27 16:32:31;;;;;;;14.28;9.68;;;;;;;6.52;100.00;100851.94;1797248;79;21006;-68
2021/03/27 16:35:28;;;;;;;17.05;11.75;;;;;;;6.48;100.00;100849.30;1768141;79;20998;-69
2021/03/27 16:38:14;;;;;;;19.10;12.23;;;;;;;6.43;100.00;100850.17;1789852;79;21154;-60
2021/03/27 16:41:09;;;;;;;17.42;12.82;;;;;;;6.39;100.00;100855.30;1802077;79;21038;-61
2021/03/27 16:43:56;;;;;;;19.98;12.23;;;;;;;6.36;100.00;100858.98;1774815;80;21601;-62
2021/03/27 16:46:57;;;;;;;20.17;12.73;;;;;;;6.38;100.00;100862.26;1808260;78;22735;-61
2021/03/27 16:49:32;;;;;;;16.85;12.25;;;;;;;6.31;100.00;100867.17;1789024;79;20973;-60
2021/03/27 16:52:21;;;;;;;17.75;13.25;;;;;;;6.28;100.00;100866.16;1791433;79;21310;-61
2021/03/27 16:55:17;;;;;;;17.87;12.47;;;;;;;6.25;100.00;100863.87;1787417;79;21311;-60
2021/03/27 16:58:04;;;;;;;16.62;10.95;;;;;;;6.21;100.00;100862.52;1782785;79;21508;-61
2021/03/27 17:00:51;;;;;;;20.77;11.85;;;;;;;6.20;100.00;100866.52;1796687;79;21593;-68
2021/03/27 17:03:24;;;;;;;18.70;11.65;;;;;;;6.18;100.00;100861.98;1785057;79;20973;-61
2021/03/27 17:06:16;;;;;;;18.82;12.58;;;;;;;6.16;100.00;100860.80;1780301;79;22119;-63
2021/03/27 17:09:17;;;;;;;17.35;12.07;;;;;;;6.19;100.00;100864.90;1768634;79;21171;-61
2021/03/27 17:12:07;;;;;;;16.85;10.55;;;;;;;6.20;100.00;100861.34;1774915;79;21004;-63
2021/03/27 17:15:16;;;;;;;15.00;9.75;;;;;;;6.22;100.00;100875.79;1780273;79;21572;-63
2021/03/27 17:18:17;;;;;;;13.38;9.83;;;;;;;6.25;100.00;100878.56;1751021;79;21544;-62
2021/03/27 17:21:10;;;;;;;13.65;8.88;;;;;;;6.30;100.00;100880.27;1780541;79;21587;-61
2021/03/27 17:23:46;;;;;;;13.83;9.05;;;;;;;6.31;100.00;100884.00;1786731;79;21568;-65
2021/03/27 17:26:43;;;;;;;17.35;9.28;;;;;;;6.33;100.00;100885.98;1718554;79;21163;-60
2021/03/27 17:29:38;;;;;;;17.73;9.75;;;;;;;6.35;100.00;100879.36;1782002;79;20986;-68
2021/03/27 17:33:02;;;;;;;15.23;9.80;;;;;;;6.35;100.00;100893.61;1776835;77;21567;-61